sensor_id;sensor_type;location;lat;lon;timestamp;temperature;humidity
949;DHT22;461;51.436;7.312;2023-05-10T06:10:38;14.30;99.90
949;DHT22;461;51.436;7.312;2023-05-10T06:13:22;14.30;99.90
949;DHT22;461;51.436;7.312;2023-05-10T06:16:38;14.40;99.90
949;DHT22;461;51.436;7.312;2023-05-10T06:19:16;14.50;99.90
949;DHT22;461;51.436;7.312;2023-05-10T06:21:42;14.40;99.90
949;DHT22;461;51.436;7.312;2023-05-10T06:24:08;14.40;99.90
949;DHT22;461;51.436;7.312;2023-05-10T06:26:34;14.50;99.90
949;DHT22;461;51.436;7.312;2023-05-10T06:29:00;14.50;99.90
949;DHT22;461;51.436;7.312;2023-05-10T06:31:26;14.60;99.90
949;DHT22;461;51.436;7.312;2023-05-10T06:33:52;14.70;99.90
949;DHT22;461;51.436;7.312;2023-05-10T06:36:18;14.70;99.90
949;DHT22;461;51.436;7.312;2023-05-10T06:38:44;14.80;99.90
949;DHT22;461;51.436;7.312;2023-05-10T06:41:10;14.80;99.90
949;DHT22;461;51.436;7.312;2023-05-10T06:43:36;14.80;99.90
949;DHT22;461;51.436;7.312;2023-05-10T06:46:05;14.90;99.90
949;DHT22;461;51.436;7.312;2023-05-10T06:48:32;14.90;99.90
949;DHT22;461;51.436;7.312;2023-05-10T06:50:58;15.00;99.90
949;DHT22;461;51.436;7.312;2023-05-10T06:53:24;15.10;99.90
949;DHT22;461;51.436;7.312;2023-05-10T06:55:50;15.10;99.90
949;DHT22;461;51.436;7.312;2023-05-10T06:58:15;15.20;99.90
949;DHT22;461;51.436;7.312;2023-05-10T07:00:41;15.20;99.90
949;DHT22;461;51.436;7.312;2023-05-10T07:03:10;15.30;99.90
949;DHT22;461;51.436;7.312;2023-05-10T07:05:36;15.40;99.90
949;DHT22;461;51.436;7.312;2023-05-10T07:08:01;15.50;99.90
949;DHT22;461;51.436;7.312;2023-05-10T07:10:27;15.70;99.90
949;DHT22;461;51.436;7.312;2023-05-10T07:12:53;15.90;99.90
949;DHT22;461;51.436;7.312;2023-05-10T07:15:19;15.90;99.90
949;DHT22;461;51.436;7.312;2023-05-10T07:17:45;16.00;99.90
949;DHT22;461;51.436;7.312;2023-05-10T07:20:11;16.00;99.90
949;DHT22;461;51.436;7.312;2023-05-10T07:22:40;16.00;99.90
949;DHT22;461;51.436;7.312;2023-05-10T07:25:06;16.00;99.90
949;DHT22;461;51.436;7.312;2023-05-10T07:27:32;16.10;99.90
949;DHT22;461;51.436;7.312;2023-05-10T07:29:58;16.00;99.90
949;DHT22;461;51.436;7.312;2023-05-10T07:32:24;16.10;99.90
949;DHT22;461;51.436;7.312;2023-05-10T07:34:49;16.10;99.90
949;DHT22;461;51.436;7.312;2023-05-10T07:37:15;16.10;99.90
949;DHT22;461;51.436;7.312;2023-05-10T07:39:41;16.10;99.90
949;DHT22;461;51.436;7.312;2023-05-10T07:42:07;16.10;99.90
949;DHT22;461;51.436;7.312;2023-05-10T07:44:33;16.10;99.90
949;DHT22;461;51.436;7.312;2023-05-10T07:46:59;16.20;99.90
949;DHT22;461;51.436;7.312;2023-05-10T07:49:25;16.10;99.90
949;DHT22;461;51.436;7.312;2023-05-10T07:51:51;16.20;99.90
949;DHT22;461;51.436;7.312;2023-05-10T07:54:17;16.30;99.90
949;DHT22;461;51.436;7.312;2023-05-10T07:56:43;16.50;99.90
949;DHT22;461;51.436;7.312;2023-05-10T07:59:16;16.70;99.90
949;DHT22;461;51.436;7.312;2023-05-10T08:16:22;16.90;99.90
